Time;durP1;ratioP1;P1;durP2;ratioP2;P2;SDS_P1;SDS_P2;PMS_P1;PMS_P2;Temp;Humidity;BMP_temperature;BMP_pressure;BME280_temperature;BME280_humidity;BME280_pressure;Samples;Min_cycle;Max_cycle;Signal;HPM_P1;HPM_P2
2023/01/14 00:02:23;;;;;;;19.70;4.43;;;;;;;9.81;64.10;100189.00;5034500;28;20049;-74
2023/01/14 00:04:50;;;;;;;18.85;4.30;;;;;;;9.90;64.11;100183.50;5034167;28;20065;-74
2023/01/14 00:07:17;;;;;;;18.52;5.03;;;;;;;9.86;63.75;100185.28;5032416;28;20049;-75
2023/01/14 00:09:44;;;;;;;18.50;4.13;;;;;;;9.85;64.25;100198.38;5034086;28;20057;-74
2023/01/14 00:12:13;;;;;;;15.80;4.25;;;;;;;9.89;64.50;100188.25;5032833;28;20069;-76
2023/01/14 00:14:40;;;;;;;17.63;4.38;;;;;;;9.82;63.55;100198.19;5032686;28;20526;-76
2023/01/14 00:17:08;;;;;;;13.95;4.50;;;;;;;9.90;63.64;100194.63;5033813;28;20060;-76
2023/01/14 00:19:35;;;;;;;13.45;4.07;;;;;;;9.95;64.14;100183.38;5033815;28;20053;-77
2023/01/14 00:22:02;;;;;;;18.08;4.20;;;;;;;10.00;64.22;100188.00;5032953;28;20049;-75
2023/01/14 00:24:30;;;;;;;13.38;3.95;;;;;;;10.00;63.16;100177.69;5033847;28;20053;-76
2023/01/14 00:26:58;;;;;;;15.85;3.97;;;;;;;9.99;63.27;100181.59;5033204;28;20060;-76
2023/01/14 00:29:30;;;;;;;19.17;5.28;;;;;;;10.07;63.56;100175.25;5030434;28;20042;-75
2023/01/14 00:31:58;;;;;;;16.80;4.47;;;;;;;10.05;63.31;100180.31;5023849;28;20056;-75
2023/01/14 00:34:28;;;;;;;18.88;4.97;;;;;;;10.01;63.43;100184.88;5032993;28;20053;-75
2023/01/14 00:36:55;;;;;;;26.33;6.32;;;;;;;10.01;62.86;100176.53;5033869;28;20061;-74
2023/01/14 00:39:23;;;;;;;15.93;4.45;;;;;;;10.05;63.48;100168.38;5033435;28;20060;-75
2023/01/14 00:41:51;;;;;;;18.35;4.00;;;;;;;10.10;63.64;100160.72;5034094;28;20052;-74
2023/01/14 00:44:19;;;;;;;17.73;4.22;;;;;;;10.08;62.84;100178.84;5031988;28;20060;-75
2023/01/14 00:46:49;;;;;;;16.83;4.75;;;;;;;9.98;63.11;100162.44;5033669;28;20060;-75
2023/01/14 00:49:18;;;;;;;16.88;4.38;;;;;;;10.00;63.15;100176.88;5033262;28;20060;-75
2023/01/14 00:51:45;;;;;;;15.07;4.78;;;;;;;10.05;62.85;100174.75;5032959;28;20486;-75
2023/01/14 00:54:13;;;;;;;16.77;4.45;;;;;;;9.98;62.90;100176.38;5033460;28;20054;-74
2023/01/14 00:56:40;;;;;;;16.23;4.28;;;;;;;9.96;63.79;100185.84;5032223;28;20437;-76
2023/01/14 00:59:11;;;;;;;17.50;5.20;;;;;;;10.01;62.87;100184.06;5032521;28;20053;-75
2023/01/14 01:01:38;;;;;;;21.20;5.18;;;;;;;10.06;63.09;100189.50;5032811;28;20429;-75
2023/01/14 01:04:07;;;;;;;15.20;4.30;;;;;;;10.13;63.16;100190.69;5032910;28;20053;-75
2023/01/14 01:06:34;;;;;;;14.60;3.90;;;;;;;10.20;63.17;100187.44;5032495;28;20081;-75
2023/01/14 01:09:03;;;;;;;14.27;3.83;;;;;;;10.24;62.71;100201.56;5033407;28;20057;-75
2023/01/14 01:11:31;;;;;;;16.30;3.88;;;;;;;10.12;62.40;100197.41;5033236;28;20064;-75
2023/01/14 01:13:59;;;;;;;16.55;4.45;;;;;;;10.07;62.68;100197.53;5031259;28;20060;-76
2023/01/14 01:16:26;;;;;;;13.95;3.53;;;;;;;10.10;62.49;100201.63;5033096;28;20045;-75
2023/01/14 01:18:55;;;;;;;20.92;5.05;;;;;;;10.05;63.24;100210.94;5032815;28;20049;-75
2023/01/14 01:21:25;;;;;;;14.82;3.85;;;;;;;9.98;63.05;100207.78;5033220;28;20049;-75
2023/01/14 01:23:53;;;;;;;15.68;4.13;;;;;;;9.80;63.48;100211.56;5032786;28;20060;-75
2023/01/14 01:26:22;;;;;;;18.55;4.80;;;;;;;9.81;62.75;100222.41;5031316;28;20053;-76
2023/01/14 01:28:55;;;;;;;15.63;4.25;;;;;;;9.84;63.67;100234.84;5032719;28;20064;-76
2023/01/14 01:31:23;;;;;;;12.18;4.45;;;;;;;9.81;63.10;100233.53;5033416;28;20057;-76
2023/01/14 01:33:50;;;;;;;21.13;4.78;;;;;;;9.71;63.99;100236.53;5032868;28;20478;-75
2023/01/14 01:36:20;;;;;;;18.40;5.05;;;;;;;9.78;63.48;100230.53;5031980;28;20054;-76
2023/01/14 01:38:49;;;;;;;18.98;4.38;;;;;;;9.65;63.72;100233.06;5031901;28;20049;-76
2023/01/14 01:41:18;;;;;;;14.40;4.25;;;;;;;9.63;64.61;100240.06;5031394;28;20042;-75
2023/01/14 01:44:00;;;;;;;14.55;4.57;;;;;;;9.65;63.54;100235.84;5032132;28;20060;-75
2023/01/14 01:46:28;;;;;;;16.60;4.65;;;;;;;9.39;64.90;100237.56;5032536;28;20056;-75
2023/01/14 01:48:59;;;;;;;15.80;4.45;;;;;;;9.44;64.63;100238.25;5032727;28;20060;-76
2023/01/14 01:51:29;;;;;;;19.30;4.90;;;;;;;9.44;64.23;100240.22;5031456;28;20053;-75
2023/01/14 01:53:59;;;;;;;14.77;3.47;;;;;;;9.42;64.47;100242.50;5028852;28;20501;-75
2023/01/14 01:56:33;;;;;;;20.25;4.60;;;;;;;9.30;65.04;100256.91;5015066;28;20072;-75
2023/01/14 01:59:03;;;;;;;17.80;3.90;;;;;;;9.33;65.10;100261.88;5032024;28;20056;-75
2023/01/14 02:01:30;;;;;;;;;;;;;;;9.29;65.02;100263.63;5033495;28;20057;-75
2023/01/14 02:03:59;;;;;;;24.40;4.97;;;;;;;9.32;65.85;100257.44;5032088;28;19921;-75
2023/01/14 02:06:26;;;;;;;18.27;4.57;;;;;;;9.14;65.22;100265.59;5032222;28;20053;-75
2023/01/14 02:08:55;;;;;;;18.13;4.40;;;;;;;9.21;66.09;100251.28;5028807;28;20057;-75
2023/01/14 02:11:56;;;;;;;15.20;4.67;;;;;;;9.24;64.57;100250.66;5031606;28;20553;-75
2023/01/14 02:14:41;;;;;;;17.30;5.18;;;;;;;9.25;66.00;100252.28;5031692;28;20061;-76
2023/01/14 02:17:20;;;;;;;20.05;4.72;;;;;;;9.23;64.94;100249.00;5033421;28;20410;-75
2023/01/14 02:20:09;;;;;;;17.98;3.85;;;;;;;9.17;65.12;100250.25;5036247;28;20132;-75
2023/01/14 02:22:58;;;;;;;16.08;4.00;;;;;;;9.20;65.99;100246.88;5035266;28;20066;-75
2023/01/14 02:25:41;;;;;;;15.43;4.68;;;;;;;9.19;65.74;100245.19;5035824;28;20137;-76
2023/01/14 02:28:22;;;;;;;15.07;3.88;;;;;;;9.12;66.26;100242.03;5034395;28;20060;-75
2023/01/14 02:30:59;;;;;;;17.38;4.47;;;;;;;9.28;65.51;100243.34;5034615;28;20072;-76
2023/01/14 02:33:37;;;;;;;21.77;4.45;;;;;;;9.25;65.18;100243.97;5035036;28;20520;-75
2023/01/14 02:36:13;;;;;;;15.65;3.83;;;;;;;9.37;64.75;100239.84;5033488;28;20080;-75
2023/01/14 02:38:48;;;;;;;23.10;4.55;;;;;;;9.33;65.79;100243.22;5033943;28;20052;-76
2023/01/14 02:44:06;;;;;;;17.02;4.32;;;;;;;9.38;65.28;100242.28;5035704;28;20053;-75
2023/01/14 02:44:12;;;;;;;19.10;3.95;;;;;;;9.40;64.79;100255.88;5034306;28;20057;-75
2023/01/14 02:46:44;;;;;;;18.60;4.70;;;;;;;9.25;65.44;100249.53;5035714;28;20053;-75
2023/01/14 02:49:15;;;;;;;19.45;4.15;;;;;;;9.23;65.32;100243.44;5035338;28;20050;-76
2023/01/14 02:51:48;;;;;;;14.63;3.92;;;;;;;9.26;65.50;100237.28;5034064;28;20098;-76
2023/01/14 02:54:16;;;;;;;19.27;4.80;;;;;;;9.29;65.89;100231.09;5029127;28;20070;-75
2023/01/14 02:56:45;;;;;;;20.83;4.22;;;;;;;9.29;65.49;100230.28;5015241;28;20085;-76
2023/01/14 02:59:42;;;;;;;11.80;4.50;;;;;;;9.28;65.77;100223.06;5032459;28;20061;-76
2023/01/14 03:02:42;;;;;;;17.42;4.28;;;;;;;9.25;65.63;100227.28;5035390;28;20472;-75
2023/01/14 03:05:26;;;;;;;20.05;4.78;;;;;;;9.24;65.18;100224.81;5033957;28;20053;-76
2023/01/14 03:07:59;;;;;;;16.55;4.18;;;;;;;9.13;66.05;100211.16;5034894;28;20417;-75
2023/01/14 03:10:33;;;;;;;20.80;4.68;;;;;;;9.17;65.31;100203.00;5035065;28;20049;-75
2023/01/14 03:13:10;;;;;;;20.85;4.80;;;;;;;9.13;65.14;100199.22;5033333;28;20049;-76
2023/01/14 03:15:41;;;;;;;15.85;3.83;;;;;;;9.18;65.31;100190.78;5034677;28;20405;-76
2023/01/14 03:18:17;;;;;;;19.00;4.78;;;;;;;9.23;65.66;100175.94;5035149;28;20387;-76
2023/01/14 03:20:52;;;;;;;16.27;4.00;;;;;;;9.14;66.47;100186.97;5034728;28;20057;-76
2023/01/14 03:23:24;;;;;;;15.57;4.53;;;;;;;9.16;65.40;100187.47;5035369;28;20068;-72
2023/01/14 03:25:54;;;;;;;21.38;4.10;;;;;;;9.13;65.40;100160.31;5034806;28;20057;-72
2023/01/14 03:28:31;;;;;;;21.50;5.10;;;;;;;9.26;65.96;100158.63;5033696;28;20065;-72
2023/01/14 03:31:03;;;;;;;14.73;3.85;;;;;;;9.29;65.55;100158.00;5035153;28;20539;-72
2023/01/14 03:33:36;;;;;;;14.90;4.00;;;;;;;9.26;65.37;100148.34;5034955;28;20054;-72
2023/01/14 03:36:05;;;;;;;18.05;4.50;;;;;;;9.34;66.09;100142.03;5034880;28;20053;-73
2023/01/14 03:38:35;;;;;;;;;;;;;;;9.37;64.93;100146.16;5034963;28;20058;-73
2023/01/14 03:41:09;;;;;;;15.35;4.38;;;;;;;9.37;65.69;100142.56;5034721;28;20361;-72
2023/01/14 03:43:43;;;;;;;17.00;3.70;;;;;;;9.35;64.75;100149.22;5032862;28;20056;-72
2023/01/14 03:46:11;;;;;;;17.48;4.15;;;;;;;9.33;65.06;100136.78;5034211;28;20405;-72
2023/01/14 03:48:40;;;;;;;14.77;3.78;;;;;;;9.28;65.60;100136.91;5034547;28;20490;-72
2023/01/14 03:51:15;;;;;;;15.47;4.70;;;;;;;9.20;64.57;100132.09;5034480;28;20056;-72
2023/01/14 03:53:52;;;;;;;17.02;4.20;;;;;;;9.18;64.68;100131.59;5032874;28;20491;-75
2023/01/14 03:56:25;;;;;;;19.73;4.63;;;;;;;9.07;65.29;100134.63;5023071;28;20049;-75
2023/01/14 03:58:58;;;;;;;16.60;3.75;;;;;;;8.97;65.33;100126.50;5035619;28;20049;-75
2023/01/14 04:01:34;;;;;;;19.50;4.63;;;;;;;8.97;65.96;100129.28;5035189;28;20064;-75
2023/01/14 04:04:04;;;;;;;16.13;4.10;;;;;;;9.00;65.21;100144.50;5035168;28;20064;-75
2023/01/14 04:06:31;;;;;;;;;;;;;;;8.90;65.87;100140.81;5036254;28;20062;-75
2023/01/14 04:08:58;;;;;;;14.60;4.25;;;;;;;8.75;66.25;100135.59;5035380;28;19928;-75
2023/01/14 04:11:26;;;;;;;14.70;4.38;;;;;;;8.74;66.02;100142.28;5034027;28;20057;-75
2023/01/14 04:16:37;;;;;;;13.98;4.10;;;;;;;8.70;65.09;100152.38;5036937;28;20056;-75
2023/01/14 04:19:06;;;;;;;17.75;4.97;;;;;;;8.62;66.04;100139.19;5036962;28;20611;-75
2023/01/14 04:21:33;;;;;;;14.60;4.18;;;;;;;8.66;65.69;100141.03;5036937;28;20053;-75
2023/01/14 04:24:00;;;;;;;13.65;3.97;;;;;;;8.68;65.76;100138.78;5036145;28;20050;-75
2023/01/14 04:26:28;;;;;;;15.88;3.80;;;;;;;8.81;65.79;100134.34;5035851;28;20057;-75
2023/01/14 04:28:55;;;;;;;16.27;4.03;;;;;;;8.79;66.39;100135.78;5036803;28;20054;-75
2023/01/14 04:31:23;;;;;;;17.33;3.90;;;;;;;8.72;66.36;100114.81;5044252;28;20216;-74
2023/01/14 04:33:50;;;;;;;19.23;4.03;;;;;;;8.80;65.29;100115.22;5056181;28;20033;-75
2023/01/14 04:36:19;;;;;;;14.13;3.70;;;;;;;8.81;65.71;100114.09;5050443;28;20076;-75
2023/01/14 04:38:49;;;;;;;20.02;5.07;;;;;;;8.83;65.53;100100.72;5035668;28;20061;-75
2023/01/14 04:43:57;;;;;;;14.85;4.20;;;;;;;8.85;66.11;100104.00;5035777;28;19921;-75
2023/01/14 04:46:27;;;;;;;17.85;4.50;;;;;;;8.91;64.79;100108.31;5035240;28;20050;-76
2023/01/14 04:48:56;;;;;;;16.98;5.60;;;;;;;8.84;66.69;100100.41;5035473;28;20060;-75
2023/01/14 04:51:27;;;;;;;18.83;3.95;;;;;;;8.84;65.90;100094.84;5035239;28;20056;-75
2023/01/14 04:53:54;;;;;;;17.55;4.55;;;;;;;8.94;66.12;100091.84;5029596;28;20053;-75
2023/01/14 04:56:22;;;;;;;20.23;4.05;;;;;;;9.02;66.02;100097.78;5014760;28;20053;-75
2023/01/14 04:58:51;;;;;;;16.63;3.72;;;;;;;9.04;64.96;100095.50;5014426;28;20058;-75
2023/01/14 05:01:19;;;;;;;17.27;3.72;;;;;;;9.10;65.56;100094.25;5014107;28;20057;-75
2023/01/14 05:03:46;;;;;;;22.02;3.85;;;;;;;9.14;64.99;100092.50;5013602;28;20053;-75
2023/01/14 05:06:13;;;;;;;18.17;3.47;;;;;;;9.19;64.67;100086.00;5013668;28;20487;-76
2023/01/14 05:08:42;;;;;;;14.90;4.13;;;;;;;9.17;63.96;100072.41;5018032;28;20046;-75
2023/01/14 05:11:11;;;;;;;18.67;4.47;;;;;;;9.08;65.21;100077.91;5033486;28;20061;-75
2023/01/14 05:13:38;;;;;;;15.23;4.55;;;;;;;9.11;65.01;100068.94;5033272;28;20053;-75
2023/01/14 05:16:06;;;;;;;21.30;4.22;;;;;;;9.06;63.89;100060.72;5033254;28;20061;-76
2023/01/14 05:18:33;;;;;;;11.90;2.95;;;;;;;9.00;64.67;100058.38;5033279;28;20060;-75
2023/01/14 05:21:02;;;;;;;18.48;4.10;;;;;;;8.93;64.82;100056.03;5033159;28;20054;-75
2023/01/14 05:23:29;;;;;;;16.20;3.57;;;;;;;8.85;63.81;100051.22;5031604;28;20072;-75
2023/01/14 05:25:58;;;;;;;17.60;3.55;;;;;;;8.85;63.94;100042.91;5033107;28;20480;-75
2023/01/14 05:28:25;;;;;;;14.23;3.63;;;;;;;8.77;64.87;100051.97;5032865;28;20069;-75
2023/01/14 05:30:52;;;;;;;13.85;3.30;;;;;;;8.81;64.40;100039.91;5033073;28;20064;-75
2023/01/14 05:33:20;;;;;;;13.75;3.45;;;;;;;8.70;64.91;100041.31;5031025;28;20053;-75
2023/01/14 05:35:47;;;;;;;12.82;3.42;;;;;;;8.79;64.72;100036.63;5032327;28;20057;-75
2023/01/14 05:38:14;;;;;;;11.80;3.53;;;;;;;8.73;65.00;100038.72;5032269;28;20053;-75
2023/01/14 05:40:44;;;;;;;14.63;3.50;;;;;;;8.61;64.27;100041.22;5032760;28;20390;-75
2023/01/14 05:45:59;;;;;;;14.27;3.55;;;;;;;8.56;65.13;100019.13;5036281;28;20512;-75
2023/01/14 05:48:27;;;;;;;11.95;2.97;;;;;;;8.52;64.96;100018.94;5029543;28;20056;-75
2023/01/14 05:50:55;;;;;;;11.95;3.05;;;;;;;8.48;64.84;100006.81;5024766;28;20136;-76
2023/01/14 05:53:23;;;;;;;13.05;3.05;;;;;;;8.47;64.96;99999.59;5035248;28;20049;-75
2023/01/14 05:55:51;;;;;;;14.05;3.03;;;;;;;8.48;64.36;100000.41;5017690;28;20054;-76
2023/01/14 05:58:21;;;;;;;12.80;3.53;;;;;;;8.58;64.63;99980.75;5035798;28;20413;-76
2023/01/14 06:06:38;;;;;;;10.70;2.95;;;;;;;8.60;63.19;99986.00;5013459;28;20576;-76
2023/01/14 06:09:08;;;;;;;13.43;3.75;;;;;;;8.48;64.76;99962.41;5012968;28;20522;-75
2023/01/14 06:11:35;;;;;;;19.13;4.28;;;;;;;8.43;63.64;99965.28;5023645;28;20057;-76
2023/01/14 06:14:04;;;;;;;14.02;2.78;;;;;;;8.40;64.98;99974.22;5036364;28;20053;-75
2023/01/14 06:16:39;;;;;;;10.95;3.38;;;;;;;8.48;63.37;99962.41;5035281;28;20508;-75
2023/01/14 06:19:10;;;;;;;12.98;3.20;;;;;;;8.50;63.83;99954.59;5035642;28;20061;-75
2023/01/14 06:21:39;;;;;;;12.10;2.85;;;;;;;8.45;63.12;99964.97;5034184;28;20053;-75
2023/01/14 06:24:08;;;;;;;10.10;2.70;;;;;;;8.43;62.87;99934.75;5035440;28;20061;-75
2023/01/14 06:26:36;;;;;;;12.43;3.25;;;;;;;8.29;63.04;99951.44;5035986;28;20763;-76
2023/01/14 06:29:07;;;;;;;14.98;3.88;;;;;;;8.39;63.49;99944.00;5036010;28;20057;-76
2023/01/14 06:31:35;;;;;;;9.13;3.58;;;;;;;8.22;63.75;99937.16;5036058;28;20065;-75
2023/01/14 06:34:02;;;;;;;11.13;2.67;;;;;;;8.31;63.71;99931.66;5036013;28;20057;-75
2023/01/14 06:36:30;;;;;;;7.63;2.33;;;;;;;8.32;64.20;99934.13;5034805;28;20045;-75
2023/01/14 06:38:58;;;;;;;13.23;2.92;;;;;;;8.32;63.12;99925.81;5035288;28;20060;-76
2023/01/14 06:41:25;;;;;;;17.58;3.58;;;;;;;8.22;64.56;99922.47;5027405;28;20069;-75
2023/01/14 06:43:52;;;;;;;12.60;3.13;;;;;;;8.33;64.33;99918.31;5015686;28;20054;-75
2023/01/14 06:46:24;;;;;;;11.95;3.13;;;;;;;8.29;63.27;99920.06;5016020;28;20061;-75
2023/01/14 06:48:52;;;;;;;10.80;2.90;;;;;;;8.26;63.21;99904.06;5030327;28;20065;-75
2023/01/14 06:51:21;;;;;;;11.10;2.78;;;;;;;8.31;63.97;99906.69;5018515;28;20069;-75
2023/01/14 06:53:49;;;;;;;10.98;2.92;;;;;;;8.34;63.07;99903.31;5035281;28;20049;-75
2023/01/14 06:56:21;;;;;;;12.45;2.97;;;;;;;8.36;64.57;99894.66;5036131;28;20390;-75
2023/01/14 06:58:48;;;;;;;8.65;2.80;;;;;;;8.30;62.98;99888.44;5035000;28;20057;-74
2023/01/14 07:01:16;;;;;;;11.00;2.42;;;;;;;8.36;62.96;99886.31;5035496;28;20493;-75
2023/01/14 07:03:45;;;;;;;8.27;2.63;;;;;;;8.27;63.19;99884.34;5034486;28;20042;-75
2023/01/14 07:06:14;;;;;;;13.32;3.15;;;;;;;8.32;63.94;99883.38;5034369;28;20095;-75
2023/01/14 07:08:41;;;;;;;10.85;2.50;;;;;;;8.32;64.64;99867.53;5034386;28;20076;-75
2023/01/14 07:11:08;;;;;;;10.90;2.72;;;;;;;8.39;63.35;99869.06;5034548;28;20060;-75
2023/01/14 07:13:35;;;;;;;14.68;2.53;;;;;;;8.44;63.18;99864.25;5029403;28;20049;-75
2023/01/14 07:16:03;;;;;;;11.68;2.72;;;;;;;8.42;64.11;99851.81;5034658;28;20050;-74
2023/01/14 07:18:30;;;;;;;11.60;2.95;;;;;;;8.47;62.85;99848.91;5033846;28;20053;-75
2023/01/14 07:21:00;;;;;;;11.18;2.58;;;;;;;8.49;63.67;99841.91;5033076;28;20060;-75
2023/01/14 07:23:27;;;;;;;10.68;2.42;;;;;;;8.44;64.30;99847.59;5034893;28;20056;-75
2023/01/14 07:25:56;;;;;;;8.13;2.65;;;;;;;8.46;63.40;99845.31;5034998;28;20482;-75
2023/01/14 07:28:24;;;;;;;12.00;2.53;;;;;;;8.49;63.51;99830.00;5034876;28;20053;-75
2023/01/14 07:30:54;;;;;;;9.13;2.28;;;;;;;8.41;63.61;99836.31;5027569;28;20056;-75
2023/01/14 07:33:21;;;;;;;10.23;2.63;;;;;;;8.51;62.92;99833.28;5032924;28;20501;-74
2023/01/14 07:35:52;;;;;;;11.68;2.95;;;;;;;8.46;62.58;99823.13;5033554;28;20053;-75
2023/01/14 07:38:26;;;;;;;13.52;3.58;;;;;;;8.47;64.20;99808.09;5033727;28;20053;-75
2023/01/14 07:40:54;;;;;;;13.48;3.13;;;;;;;8.57;62.95;99817.28;5032588;28;20049;-75
2023/01/14 07:43:22;;;;;;;9.15;2.33;;;;;;;8.65;63.96;99795.16;5031883;28;20069;-76
2023/01/14 07:45:49;;;;;;;10.27;2.88;;;;;;;8.65;63.95;99808.19;5028997;28;20482;-75
2023/01/14 07:48:16;;;;;;;7.88;2.20;;;;;;;8.52;65.02;99788.56;5031609;28;20057;-75
2023/01/14 07:50:43;;;;;;;11.20;2.85;;;;;;;8.58;65.71;99797.53;5030410;28;20061;-76
2023/01/14 07:53:10;;;;;;;9.15;2.22;;;;;;;8.50;66.77;99776.94;5030934;28;20054;-75
2023/01/14 07:55:42;;;;;;;10.90;2.97;;;;;;;8.46;67.52;99781.50;5022448;28;20045;-76
2023/01/14 07:58:10;;;;;;;8.90;2.60;;;;;;;8.51;66.94;99774.97;5023909;28;20068;-75
2023/01/14 08:00:37;;;;;;;10.85;2.47;;;;;;;8.49;67.43;99775.28;5030156;28;20049;-75
2023/01/14 08:03:05;;;;;;;12.02;2.47;;;;;;;8.52;66.04;99752.47;5030660;28;20061;-75
2023/01/14 08:05:34;;;;;;;9.38;2.83;;;;;;;8.45;66.39;99754.88;5027054;28;20061;-75
2023/01/14 08:08:01;;;;;;;12.05;2.88;;;;;;;8.47;67.91;99752.59;5032778;28;20076;-75
2023/01/14 08:10:32;;;;;;;14.10;2.67;;;;;;;8.42;68.29;99741.63;5029960;28;20053;-75
2023/01/14 08:13:00;;;;;;;10.43;3.42;;;;;;;8.19;69.34;99734.44;5032337;28;20064;-75
2023/01/14 08:15:29;;;;;;;11.25;3.20;;;;;;;8.14;70.45;99738.97;5031445;28;20054;-75
2023/01/14 08:17:56;;;;;;;15.25;3.65;;;;;;;8.09;70.39;99744.66;5028959;28;20049;-75
2023/01/14 08:20:25;;;;;;;12.77;3.25;;;;;;;8.00;71.22;99710.50;5032151;28;20068;-75
2023/01/14 08:22:59;;;;;;;11.43;3.08;;;;;;;7.79;72.35;99728.75;5032941;28;20402;-76
2023/01/14 08:25:28;;;;;;;9.68;2.72;;;;;;;7.83;71.33;99740.88;5022998;28;20056;-75
2023/01/14 08:27:57;;;;;;;12.55;3.17;;;;;;;7.75;73.64;99711.13;5031731;28;20049;-75
2023/01/14 08:30:26;;;;;;;8.52;3.13;;;;;;;7.76;73.74;99690.59;5031141;28;20054;-75
2023/01/14 08:32:55;;;;;;;10.52;2.47;;;;;;;7.79;72.72;99687.19;5022259;28;20049;-75
2023/01/14 08:35:22;;;;;;;12.43;2.83;;;;;;;7.96;72.35;99683.69;5031072;28;20053;-76
2023/01/14 08:37:50;;;;;;;14.55;2.95;;;;;;;7.93;72.28;99669.34;5031923;28;20049;-75
2023/01/14 08:40:17;;;;;;;13.43;3.33;;;;;;;7.83;72.81;99675.16;5032511;28;20053;-75
2023/01/14 08:42:45;;;;;;;11.32;2.60;;;;;;;7.98;71.93;99693.38;5016779;28;20064;-75
2023/01/14 08:45:12;;;;;;;11.10;2.58;;;;;;;8.10;71.83;99665.03;5031022;28;20060;-76
2023/01/14 08:47:41;;;;;;;8.77;2.88;;;;;;;8.14;72.29;99672.41;5032762;28;20076;-73
2023/01/14 08:50:10;;;;;;;10.23;2.92;;;;;;;8.11;71.82;99659.19;5029026;28;20053;-74
2023/01/14 08:52:37;;;;;;;9.40;2.35;;;;;;;8.13;72.21;99662.44;5031708;28;20064;-73
2023/01/14 08:55:05;;;;;;;8.27;2.30;;;;;;;8.26;72.04;99665.47;5032069;28;20065;-73
2023/01/14 08:57:32;;;;;;;10.18;3.22;;;;;;;8.26;73.05;99659.91;5013252;28;20056;-73
2023/01/14 09:00:00;;;;;;;12.82;3.22;;;;;;;8.32;71.90;99653.09;5013104;28;20077;-72
2023/01/14 09:02:27;;;;;;;9.63;2.13;;;;;;;8.40;73.11;99657.84;5028735;28;20057;-73
2023/01/14 09:04:56;;;;;;;8.52;2.20;;;;;;;8.36;71.93;99634.66;5029982;28;20061;-73
2023/01/14 09:18:25;;;;;;;11.43;2.60;;;;;;;8.79;70.83;99589.56;5030078;28;20057;-73
2023/01/14 09:20:53;;;;;;;8.88;2.90;;;;;;;8.84;69.70;99594.97;5031181;28;20486;-73
2023/01/14 09:23:21;;;;;;;8.18;2.72;;;;;;;8.81;69.38;99587.28;5031642;28;20050;-73
2023/01/14 09:25:48;;;;;;;6.45;2.38;;;;;;;8.85;68.61;99577.16;5029647;28;20058;-73
2023/01/14 09:28:15;;;;;;;8.63;1.98;;;;;;;8.78;68.89;99595.44;5031612;28;20060;-73
2023/01/14 09:30:42;;;;;;;9.75;2.85;;;;;;;8.83;68.88;99557.22;5030558;28;20056;-73
2023/01/14 09:33:11;;;;;;;7.43;2.28;;;;;;;8.91;68.21;99550.06;5019547;28;20061;-73
2023/01/14 09:35:39;;;;;;;6.20;2.03;;;;;;;9.08;69.10;99552.03;5029196;28;20052;-73
2023/01/14 09:38:07;;;;;;;4.53;1.70;;;;;;;8.99;69.18;99538.16;5027457;28;20421;-73
2023/01/14 09:40:37;;;;;;;9.90;2.53;;;;;;;8.97;68.98;99529.31;5031847;28;20057;-72
2023/01/14 09:43:06;;;;;;;6.90;2.00;;;;;;;9.04;67.87;99529.63;5033292;28;20065;-73
2023/01/14 09:45:34;;;;;;;8.57;2.30;;;;;;;9.13;69.52;99543.50;5032094;28;20438;-73
2023/01/14 09:48:05;;;;;;;7.50;1.90;;;;;;;9.16;67.83;99520.66;5030660;28;20061;-74
2023/01/14 09:50:41;;;;;;;8.18;2.25;;;;;;;9.18;68.57;99518.34;5023866;28;20401;-73
2023/01/14 09:53:25;;;;;;;6.40;1.70;;;;;;;9.20;68.27;99504.97;5030737;28;20053;-74
2023/01/14 09:55:55;;;;;;;6.13;1.60;;;;;;;9.18;68.85;99512.81;5031239;28;20050;-74
2023/01/14 09:58:29;;;;;;;5.93;2.05;;;;;;;9.24;68.24;99514.25;5032007;28;20057;-74
2023/01/14 10:01:07;;;;;;;7.80;2.20;;;;;;;9.33;67.18;99523.41;5030280;28;20060;-73
2023/01/14 10:03:46;;;;;;;4.40;1.58;;;;;;;9.31;67.07;99509.00;5029647;28;20497;-74
2023/01/14 10:06:22;;;;;;;4.53;1.67;;;;;;;9.48;67.38;99488.69;5031850;28;20056;-76
2023/01/14 10:08:56;;;;;;;7.57;2.00;;;;;;;9.46;66.99;99468.75;5031994;28;20061;-74
2023/01/14 10:11:26;;;;;;;8.05;1.88;;;;;;;9.55;67.48;99471.50;5031339;28;20053;-73
2023/01/14 10:14:03;;;;;;;4.93;1.50;;;;;;;9.54;67.14;99487.38;5030041;28;20046;-73
2023/01/14 10:16:34;;;;;;;6.03;1.65;;;;;;;9.61;66.87;99453.50;5029926;28;20050;-74
2023/01/14 10:19:07;;;;;;;6.72;1.67;;;;;;;9.72;67.14;99429.75;5028892;28;20050;-75
2023/01/14 10:21:43;;;;;;;4.53;1.70;;;;;;;9.81;65.63;99417.78;5030429;28;20058;-75
2023/01/14 10:24:14;;;;;;;5.32;1.50;;;;;;;9.87;66.15;99410.84;5032378;28;20064;-73
2023/01/14 10:26:47;;;;;;;4.82;1.40;;;;;;;9.87;65.34;99380.25;5031117;28;20474;-74
2023/01/14 10:29:16;;;;;;;4.75;1.20;;;;;;;9.88;66.07;99390.22;5031010;28;20125;-75
2023/01/14 10:31:47;;;;;;;4.90;1.27;;;;;;;10.00;65.61;99381.16;5029027;28;20050;-76
2023/01/14 10:34:23;;;;;;;3.70;1.67;;;;;;;9.92;65.75;99372.53;5031232;28;20424;-76
2023/01/14 10:36:51;;;;;;;6.18;1.80;;;;;;;10.02;65.60;99362.19;5031474;28;20049;-75
2023/01/14 10:39:20;;;;;;;4.20;1.50;;;;;;;9.97;65.79;99329.78;5032123;28;20064;-74
2023/01/14 10:41:51;;;;;;;6.70;1.45;;;;;;;9.88;66.46;99343.75;5035108;28;20052;-74
2023/01/14 10:44:24;;;;;;;3.92;1.52;;;;;;;9.92;67.31;99335.56;5035020;28;20049;-74
2023/01/14 10:46:57;;;;;;;4.63;1.70;;;;;;;10.00;68.63;99336.66;5032845;28;20057;-74
2023/01/14 10:49:39;;;;;;;5.57;1.42;;;;;;;9.75;68.58;99315.06;5034021;28;20045;-76
2023/01/14 10:52:23;;;;;;;5.22;1.65;;;;;;;9.63;69.85;99295.50;5034545;28;20072;-74
2023/01/14 10:55:02;;;;;;;5.85;1.55;;;;;;;9.17;73.48;99291.66;5033357;28;20049;-76
2023/01/14 10:57:31;;;;;;;4.03;1.50;;;;;;;8.96;75.31;99318.56;5032835;28;20049;-76
2023/01/14 10:59:59;;;;;;;6.82;1.60;;;;;;;9.00;76.05;99280.66;5032660;28;20057;-77
2023/01/14 11:02:36;;;;;;;5.05;1.30;;;;;;;9.05;75.84;99264.63;5033637;28;20076;-78
2023/01/14 11:05:05;;;;;;;4.65;1.27;;;;;;;9.24;76.31;99269.75;5034174;28;20054;-76
2023/01/14 11:07:35;;;;;;;5.53;1.75;;;;;;;9.28;76.81;99265.16;5027528;28;20049;-76
2023/01/14 11:10:19;;;;;;;5.45;1.50;;;;;;;9.24;75.08;99288.38;5029111;28;20053;-75
2023/01/14 11:12:46;;;;;;;5.05;1.55;;;;;;;9.29;75.39;99255.66;5031442;28;20045;-75
2023/01/14 11:15:33;;;;;;;5.82;1.50;;;;;;;9.31;75.21;99249.78;5021654;28;20049;-76
2023/01/14 11:18:21;;;;;;;6.25;2.38;;;;;;;9.38;76.95;99241.72;5026439;28;20055;-75
2023/01/14 11:20:54;;;;;;;5.30;1.58;;;;;;;9.37;77.78;99273.44;5032148;28;20417;-75
2023/01/14 11:23:28;;;;;;;5.38;1.60;;;;;;;9.35;77.85;99245.97;5030453;28;20481;-75
2023/01/14 11:26:08;;;;;;;5.60;1.48;;;;;;;9.51;77.49;99234.25;5028468;28;20053;-76
2023/01/14 11:28:43;;;;;;;4.35;1.13;;;;;;;9.18;77.91;99217.50;5018181;28;20134;-76
2023/01/14 11:31:10;;;;;;;3.40;1.33;;;;;;;8.72;78.60;99267.19;5029636;28;20505;-76
2023/01/14 11:33:48;;;;;;;6.35;1.50;;;;;;;8.89;80.48;99217.16;5034232;28;20493;-76
2023/01/14 11:36:21;;;;;;;5.65;1.73;;;;;;;8.93;81.61;99201.44;5034296;28;20049;-76
2023/01/14 11:38:48;;;;;;;6.15;1.63;;;;;;;8.96;81.79;99191.63;5034099;28;20073;-76
2023/01/14 11:41:35;;;;;;;4.30;1.60;;;;;;;8.82;82.60;99200.22;5033364;28;20438;-76
2023/01/14 11:44:07;;;;;;;4.60;1.50;;;;;;;8.76;83.71;99189.59;5034101;28;20410;-76
2023/01/14 11:46:36;;;;;;;6.57;1.83;;;;;;;8.66;84.00;99197.16;5033913;28;20049;-77
2023/01/14 11:49:19;;;;;;;5.60;1.48;;;;;;;8.58;84.90;99188.88;5034146;28;20421;-76
2023/01/14 11:51:59;;;;;;;6.93;1.40;;;;;;;8.61;87.39;99160.44;5033999;28;20057;-77
2023/01/14 11:54:34;;;;;;;6.80;1.80;;;;;;;8.62;87.69;99129.59;5033978;28;20064;-76
2023/01/14 11:57:03;;;;;;;4.10;1.40;;;;;;;8.62;87.07;99129.59;5034523;28;20056;-76
2023/01/14 11:59:38;;;;;;;3.75;1.60;;;;;;;8.69;89.05;99120.72;5034550;28;20540;-76
2023/01/14 12:02:15;;;;;;;4.10;1.65;;;;;;;8.80;86.53;99102.53;5032601;28;20437;-76
2023/01/14 12:04:48;;;;;;;3.75;1.73;;;;;;;8.81;87.17;99081.16;5033128;28;20054;-77
2023/01/14 12:07:20;;;;;;;5.55;1.25;;;;;;;8.98;85.39;99080.22;5033712;28;20405;-75
2023/01/14 12:09:57;;;;;;;4.07;1.15;;;;;;;8.87;85.16;99075.06;5032667;28;20049;-75
2023/01/14 12:16:48;;;;;;;6.88;1.60;;;;;;;9.13;84.89;99037.91;5033509;28;20057;-75
2023/01/14 12:18:17;;;;;;;3.88;1.10;;;;;;;8.98;84.95;99025.47;5036521;28;20060;-76